createdAt,value
2022-11-06T00:00:49.506Z,100717.84
2022-11-06T00:03:17.026Z,100701.84
2022-11-06T00:06:01.947Z,100699.47
2022-11-06T00:08:30.476Z,100693.06
2022-11-06T00:10:59.356Z,100693.94
2022-11-06T00:13:26.983Z,100687.63
2022-11-06T00:15:54.596Z,100688.16
2022-11-06T00:18:22.051Z,100687.25
2022-11-06T00:20:49.515Z,100689.88
2022-11-06T00:23:16.998Z,100689.13
2022-11-06T00:25:44.481Z,100687.25
2022-11-06T00:28:13.671Z,100698.88
2022-11-06T00:30:41.547Z,100691.75
2022-11-06T00:33:10.651Z,100684.59
2022-11-06T00:35:38.539Z,100691.41
2022-11-06T00:38:06.132Z,100697.00
2022-11-06T00:40:33.586Z,100703.50
2022-11-06T00:43:01.179Z,100693.38
2022-11-06T00:45:29.987Z,100683.59
2022-11-06T00:47:57.437Z,100675.91
2022-11-06T00:50:26.453Z,100693.63
2022-11-06T00:52:54.486Z,100702.66
2022-11-06T00:55:22.020Z,100685.41
2022-11-06T00:57:49.464Z,100679.03
2022-11-06T01:00:18.042Z,100688.50
2022-11-06T01:02:46.966Z,100677.94
2022-11-06T01:05:14.687Z,100696.47
2022-11-06T01:07:42.541Z,100702.34
2022-11-06T01:10:10.299Z,100697.41
2022-11-06T01:12:37.831Z,100707.25
2022-11-06T01:15:05.746Z,100694.31
2022-11-06T01:17:33.659Z,100706.19
2022-11-06T01:20:02.891Z,100684.66
2022-11-06T01:22:30.437Z,100695.47
2022-11-06T01:24:58.011Z,100683.72
2022-11-06T01:27:26.946Z,100685.94
2022-11-06T01:29:55.066Z,100689.69
2022-11-06T01:32:22.605Z,100676.59
2022-11-06T01:34:50.308Z,100662.72
2022-11-06T01:37:19.152Z,100664.50
2022-11-06T01:39:47.302Z,100681.03
2022-11-06T01:42:14.854Z,100663.84
2022-11-06T01:45:07.276Z,100653.47
2022-11-06T01:47:34.703Z,100666.84
2022-11-06T01:50:04.625Z,100665.41
2022-11-06T01:52:33.611Z,100653.97
2022-11-06T01:55:03.427Z,100649.06
2022-11-06T01:57:30.975Z,100650.59
2022-11-06T01:59:58.426Z,100635.31
2022-11-06T02:02:25.987Z,100648.47
2022-11-06T02:04:53.516Z,100635.97
2022-11-06T02:07:21.249Z,100638.09
2022-11-06T02:09:50.100Z,100631.47
2022-11-06T02:12:20.072Z,100621.50
2022-11-06T02:14:52.311Z,100628.03
2022-11-06T02:17:21.883Z,100631.00
2022-11-06T02:19:53.244Z,100650.28
2022-11-06T02:22:25.271Z,100655.34
2022-11-06T02:24:59.975Z,100636.03
2022-11-06T02:27:28.983Z,100651.63
2022-11-06T02:29:57.251Z,100631.38
2022-11-06T02:32:25.735Z,100618.28
2022-11-06T02:34:53.534Z,100629.50
2022-11-06T02:37:22.790Z,100627.13
2022-11-06T02:39:50.261Z,100647.81
2022-11-06T02:42:17.788Z,100619.81
2022-11-06T02:44:46.594Z,100616.78
2022-11-06T02:47:14.356Z,100621.59
2022-11-06T02:49:42.468Z,100620.16
2022-11-06T02:52:11.473Z,100620.56
2022-11-06T02:54:39.639Z,100613.44
2022-11-06T02:57:08.459Z,100602.22
2022-11-06T02:59:38.053Z,100605.34
2022-11-06T03:02:07.525Z,100608.56
2022-11-06T03:04:36.564Z,100607.25
2022-11-06T03:07:05.147Z,100608.31
2022-11-06T03:09:33.252Z,100614.03
2022-11-06T03:12:02.135Z,100612.59
2022-11-06T03:14:31.252Z,100622.47
2022-11-06T03:16:59.262Z,100608.75
2022-11-06T03:19:29.011Z,100612.22
2022-11-06T03:21:58.960Z,100620.16
2022-11-06T03:24:31.035Z,100619.94
2022-11-06T03:26:59.062Z,100610.41
2022-11-06T03:29:27.688Z,100607.50
2022-11-06T03:31:55.997Z,100606.53
2022-11-06T03:34:26.104Z,100589.22
2022-11-06T03:36:56.117Z,100603.84
2022-11-06T03:39:24.707Z,100609.94
2022-11-06T03:41:52.956Z,100612.91
2022-11-06T03:44:21.376Z,100580.34
2022-11-06T03:46:49.655Z,100606.38
2022-11-06T03:49:18.310Z,100611.88
2022-11-06T03:51:46.210Z,100600.53
2022-11-06T03:54:16.563Z,100600.16
2022-11-06T03:56:44.947Z,100598.28
2022-11-06T03:59:12.769Z,100592.94
2022-11-06T04:01:42.508Z,100599.25
2022-11-06T04:04:11.437Z,100598.16
2022-11-06T04:06:40.023Z,100586.03
2022-11-06T04:09:24.827Z,100596.47
2022-11-06T04:12:10.903Z,100592.53
2022-11-06T04:14:38.771Z,100605.78
2022-11-06T04:17:07.823Z,100611.19
2022-11-06T04:19:35.326Z,100577.22
2022-11-06T04:22:10.071Z,100580.84
2022-11-06T04:24:59.115Z,100591.69
2022-11-06T04:27:30.689Z,100587.44
2022-11-06T04:30:05.982Z,100578.88
2022-11-06T04:32:39.950Z,100596.34
2022-11-06T04:35:08.897Z,100598.78
2022-11-06T04:37:37.940Z,100595.19
2022-11-06T04:40:06.915Z,100588.03
2022-11-06T04:42:37.292Z,100578.09
2022-11-06T04:45:06.092Z,100576.69
2022-11-06T04:47:33.536Z,100589.47
2022-11-06T04:50:01.879Z,100595.41
2022-11-06T04:52:29.935Z,100569.84
2022-11-06T04:54:57.763Z,100569.00
2022-11-06T04:57:25.250Z,100584.28
2022-11-06T04:59:54.030Z,100564.38
2022-11-06T05:02:21.553Z,100570.66
2022-11-06T05:04:49.345Z,100559.31
2022-11-06T05:07:17.558Z,100562.31
2022-11-06T05:09:45.627Z,100550.81
2022-11-06T05:12:13.499Z,100537.47
2022-11-06T05:14:40.965Z,100562.69
2022-11-06T05:17:10.309Z,100566.28
2022-11-06T05:19:37.764Z,100568.91
2022-11-06T05:22:22.577Z,100539.41
2022-11-06T05:24:50.050Z,100551.84
2022-11-06T05:27:17.490Z,100547.06
2022-11-06T05:29:44.952Z,100514.91
2022-11-06T05:32:13.772Z,100546.00
2022-11-06T05:34:42.273Z,100530.94
2022-11-06T05:37:09.745Z,100543.19
2022-11-06T05:39:41.567Z,100516.69
2022-11-06T05:42:09.767Z,100524.59
2022-11-06T05:44:37.708Z,100533.28
2022-11-06T05:47:05.252Z,100553.06
2022-11-06T05:49:34.298Z,100545.16
2022-11-06T05:52:01.776Z,100542.25
2022-11-06T05:54:29.234Z,100544.13
2022-11-06T05:56:56.716Z,100533.19
2022-11-06T05:59:24.232Z,100535.47
2022-11-06T06:01:51.774Z,100526.78
2022-11-06T06:04:19.318Z,100534.41
2022-11-06T06:06:48.128Z,100538.28
2022-11-06T06:09:15.587Z,100543.56
2022-11-06T06:11:43.016Z,100537.63
2022-11-06T06:14:10.575Z,100533.00
2022-11-06T06:16:38.021Z,100527.72
2022-11-06T06:19:05.478Z,100532.91
2022-11-06T06:21:32.932Z,100523.13
2022-11-06T06:24:01.743Z,100518.69
2022-11-06T06:26:29.166Z,100517.56
2022-11-06T06:28:56.651Z,100520.75
2022-11-06T06:31:24.145Z,100519.63
2022-11-06T06:33:51.650Z,100517.19
2022-11-06T06:36:19.113Z,100525.63
2022-11-06T06:38:46.599Z,100513.50
2022-11-06T06:41:15.407Z,100499.34
2022-11-06T06:43:42.934Z,100506.81
2022-11-06T06:46:10.450Z,100518.19
2022-11-06T06:48:37.955Z,100510.75
2022-11-06T06:51:07.764Z,100518.19
2022-11-06T06:53:35.274Z,100509.25
2022-11-06T06:56:02.761Z,100519.06
2022-11-06T06:58:31.903Z,100507.56
2022-11-06T07:01:00.156Z,100507.13
2022-11-06T07:03:27.998Z,100514.44
2022-11-06T07:05:55.462Z,100511.63
2022-11-06T07:08:23.150Z,100497.69
2022-11-06T07:10:50.795Z,100512.66
2022-11-06T07:13:18.439Z,100500.56
2022-11-06T07:15:47.465Z,100521.13
2022-11-06T07:18:15.519Z,100507.44
2022-11-06T07:20:43.397Z,100508.03
2022-11-06T07:23:11.128Z,100506.44
2022-11-06T07:25:38.869Z,100505.56
2022-11-06T07:28:08.024Z,100526.28
2022-11-06T07:30:36.559Z,100494.91
2022-11-06T07:33:06.517Z,100501.69
2022-11-06T07:35:34.834Z,100511.34
2022-11-06T07:38:04.808Z,100510.06
2022-11-06T07:40:32.604Z,100511.94
2022-11-06T07:43:04.611Z,100515.84
2022-11-06T07:45:32.257Z,100511.13
2022-11-06T07:47:59.971Z,100515.16
2022-11-06T07:50:29.239Z,100520.91
2022-11-06T07:52:57.018Z,100510.66
2022-11-06T07:55:24.847Z,100508.63
2022-11-06T07:57:52.516Z,100507.63
2022-11-06T08:00:20.988Z,100494.38
2022-11-06T08:02:52.037Z,100489.34
2022-11-06T08:05:19.720Z,100500.28
2022-11-06T08:07:48.744Z,100496.19
2022-11-06T08:10:16.437Z,100489.41
2022-11-06T08:12:44.093Z,100484.81
2022-11-06T08:15:12.060Z,100476.25
2022-11-06T08:17:39.746Z,100467.38
2022-11-06T08:20:09.088Z,100489.75
2022-11-06T08:22:36.788Z,100476.44
2022-11-06T08:25:06.734Z,100482.56
2022-11-06T08:27:34.370Z,100470.72
2022-11-06T08:30:02.021Z,100456.53
2022-11-06T08:32:29.818Z,100465.81
2022-11-06T08:34:57.461Z,100467.19
2022-11-06T08:37:25.106Z,100468.81
2022-11-06T08:39:52.771Z,100467.56
2022-11-06T08:42:21.744Z,100472.63
2022-11-06T08:44:49.391Z,100470.84
2022-11-06T08:47:17.006Z,100470.13
2022-11-06T08:49:44.666Z,100466.69
2022-11-06T08:52:12.326Z,100473.50
2022-11-06T08:54:39.975Z,100484.25
2022-11-06T08:57:07.603Z,100482.97
2022-11-06T08:59:36.451Z,100475.25
2022-11-06T09:02:04.023Z,100459.94
2022-11-06T09:04:31.614Z,100445.22
2022-11-06T09:06:59.081Z,100468.00
2022-11-06T09:09:31.877Z,100443.31
2022-11-06T09:11:59.414Z,100446.16
2022-11-06T09:14:26.851Z,100446.16
2022-11-06T09:16:55.679Z,100448.06
2022-11-06T09:19:23.154Z,100421.31
2022-11-06T09:21:54.683Z,100412.94
2022-11-06T09:24:43.297Z,100409.03
2022-11-06T09:27:10.137Z,100407.00
2022-11-06T09:29:40.690Z,100411.75
2022-11-06T09:32:09.549Z,100410.81
2022-11-06T09:34:37.007Z,100407.84
2022-11-06T09:37:04.438Z,100436.72
2022-11-06T09:39:31.887Z,100430.78
2022-11-06T09:41:59.883Z,100409.31
2022-11-06T09:44:30.899Z,100424.41
2022-11-06T09:46:58.351Z,100405.91
2022-11-06T09:49:27.647Z,100420.09
2022-11-06T09:51:56.795Z,100407.84
2022-11-06T09:54:24.992Z,100414.22
2022-11-06T09:56:55.430Z,100413.66
2022-11-06T09:59:22.919Z,100409.53
2022-11-06T10:01:51.895Z,100417.06
2022-11-06T10:04:22.551Z,100416.28
2022-11-06T10:06:51.368Z,100390.47
2022-11-06T10:09:18.887Z,100407.41
2022-11-06T10:11:50.189Z,100394.63
2022-11-06T10:14:21.539Z,100389.75
2022-11-06T10:16:50.720Z,100383.78
2022-11-06T10:19:29.740Z,100371.69
2022-11-06T10:22:00.222Z,100376.09
2022-11-06T10:24:30.062Z,100360.75
2022-11-06T10:26:57.787Z,100353.84
2022-11-06T10:29:42.905Z,100353.72
2022-11-06T10:32:15.393Z,100365.78
2022-11-06T10:34:43.109Z,100351.44
2022-11-06T10:37:12.174Z,100333.41
2022-11-06T10:39:39.637Z,100352.06
2022-11-06T10:42:07.699Z,100334.19
2022-11-06T10:44:37.210Z,100346.84
2022-11-06T10:47:05.863Z,100342.84
2022-11-06T10:49:36.220Z,100345.09
2022-11-06T10:52:17.403Z,100349.69
2022-11-06T10:54:48.895Z,100337.28
2022-11-06T10:57:20.188Z,100339.84
2022-11-06T10:59:48.253Z,100329.31
2022-11-06T11:02:22.676Z,100332.31
2022-11-06T11:04:53.982Z,100316.63
2022-11-06T11:07:25.663Z,100322.13
2022-11-06T11:09:53.331Z,100306.03
2022-11-06T11:12:22.227Z,100307.66
2022-11-06T11:15:04.815Z,100297.84
2022-11-06T11:17:32.325Z,100298.97
2022-11-06T11:20:02.175Z,100295.91
2022-11-06T11:22:33.233Z,100305.06
2022-11-06T11:25:02.829Z,100298.84
2022-11-06T11:27:30.349Z,100303.81
2022-11-06T11:29:57.854Z,100300.78
2022-11-06T11:32:25.348Z,100294.28
2022-11-06T11:34:56.603Z,100297.88
2022-11-06T11:37:25.515Z,100283.88
2022-11-06T11:39:54.346Z,100295.25
2022-11-06T11:42:23.098Z,100277.63
2022-11-06T11:45:04.585Z,100270.88
2022-11-06T11:47:32.051Z,100271.22
2022-11-06T11:49:59.517Z,100263.38
2022-11-06T11:52:26.996Z,100253.00
2022-11-06T11:54:55.791Z,100252.13
2022-11-06T11:57:23.672Z,100233.03
2022-11-06T11:59:52.743Z,100235.16
2022-11-06T12:02:26.764Z,100235.88
2022-11-06T12:04:55.886Z,100223.84
2022-11-06T12:07:24.919Z,100237.13
2022-11-06T12:09:52.409Z,100213.44
2022-11-06T12:12:23.207Z,100212.59
2022-11-06T12:15:04.788Z,100207.28
2022-11-06T12:17:33.850Z,100199.28
2022-11-06T12:20:01.348Z,100190.97
2022-11-06T12:22:29.556Z,100204.25
2022-11-06T12:24:58.744Z,100182.91
2022-11-06T12:27:28.083Z,100197.44
2022-11-06T12:29:58.263Z,100187.53
2022-11-06T12:32:27.756Z,100176.63
2022-11-06T12:34:56.940Z,100156.84
2022-11-06T12:37:25.899Z,100169.16
2022-11-06T12:39:53.895Z,100167.13
2022-11-06T12:42:21.373Z,100150.59
2022-11-06T12:44:50.179Z,100152.47
2022-11-06T12:47:26.187Z,100141.31
2022-11-06T12:50:01.088Z,100140.69
2022-11-06T12:52:30.152Z,100152.16
2022-11-06T12:55:02.206Z,100156.03
2022-11-06T12:57:31.715Z,100133.88
2022-11-06T13:00:11.224Z,100137.44
2022-11-06T13:02:46.112Z,100125.91
2022-11-06T13:05:15.087Z,100133.63
2022-11-06T13:07:52.478Z,100108.81
2022-11-06T13:10:21.456Z,100111.78
2022-11-06T13:12:51.371Z,100105.78
2022-11-06T13:15:22.649Z,100106.28
2022-11-06T13:17:50.923Z,100117.25
2022-11-06T13:20:20.266Z,100085.69
2022-11-06T13:22:49.540Z,100115.34
2022-11-06T13:25:18.311Z,100098.94
2022-11-06T13:27:47.032Z,100099.78
2022-11-06T13:30:16.306Z,100091.84
2022-11-06T13:32:51.066Z,100106.16
2022-11-06T13:35:21.038Z,100105.97
2022-11-06T13:37:48.753Z,100100.72
2022-11-06T13:40:21.322Z,100086.41
2022-11-06T13:42:49.950Z,100095.34
2022-11-06T13:45:17.441Z,100086.41
2022-11-06T13:47:50.096Z,100078.03
2022-11-06T13:50:19.192Z,100084.16
2022-11-06T13:52:47.485Z,100072.25
2022-11-06T13:55:16.126Z,100083.31
2022-11-06T13:57:58.562Z,100074.78
2022-11-06T14:00:26.199Z,100080.44
2022-11-06T14:03:05.953Z,100081.53
2022-11-06T14:05:53.219Z,100084.06
2022-11-06T14:08:22.263Z,100088.50
2022-11-06T14:10:51.375Z,100090.03
2022-11-06T14:13:18.820Z,100085.00
2022-11-06T14:15:47.539Z,100084.53
2022-11-06T14:18:23.759Z,100061.03
2022-11-06T14:20:51.195Z,100098.19
2022-11-06T14:23:37.942Z,100089.59
2022-11-06T14:26:06.159Z,100079.69
2022-11-06T14:28:34.359Z,100072.72
2022-11-06T14:31:23.729Z,100053.38
2022-11-06T14:34:00.645Z,100073.72
2022-11-06T14:36:29.528Z,100057.09
2022-11-06T14:38:57.058Z,100057.56
2022-11-06T14:41:49.060Z,100066.84
2022-11-06T14:44:22.348Z,100056.88
2022-11-06T14:46:50.196Z,100072.53
2022-11-06T14:49:20.930Z,100055.38
2022-11-06T14:51:54.739Z,100050.81
2022-11-06T14:54:22.720Z,100055.41
2022-11-06T14:56:52.875Z,100046.00
2022-11-06T14:59:21.244Z,100038.06
2022-11-06T15:01:54.988Z,100033.22
2022-11-06T15:04:23.865Z,100022.25
2022-11-06T15:06:51.747Z,100027.69
2022-11-06T15:09:34.055Z,100050.34
2022-11-06T15:12:01.700Z,100058.78
2022-11-06T15:14:47.994Z,100036.84
2022-11-06T15:17:15.731Z,100023.47
2022-11-06T15:19:44.933Z,100023.84
2022-11-06T15:22:15.372Z,100040.22
2022-11-06T15:24:44.328Z,100025.03
2022-11-06T15:27:13.466Z,100018.53
2022-11-06T15:29:42.025Z,100022.38
2022-11-06T15:32:11.163Z,100012.50
2022-11-06T15:34:39.150Z,100016.81
2022-11-06T15:37:09.355Z,100027.19
2022-11-06T15:39:39.519Z,100010.28
2022-11-06T15:42:08.460Z,99990.53
2022-11-06T15:44:38.214Z,99998.63
2022-11-06T15:47:05.719Z,100004.03
2022-11-06T15:49:33.258Z,100001.06
2022-11-06T15:52:01.417Z,100001.31
2022-11-06T15:54:36.011Z,99987.16
2022-11-06T15:57:04.414Z,99995.72
2022-11-06T15:59:32.333Z,100002.09
2022-11-06T16:01:59.870Z,100000.78
2022-11-06T16:04:27.516Z,99992.91
2022-11-06T16:06:55.188Z,99988.34
2022-11-06T16:09:23.285Z,99979.44
2022-11-06T16:11:52.488Z,99980.13
2022-11-06T16:14:20.488Z,100000.22
2022-11-06T16:16:48.622Z,99988.88
2022-11-06T16:19:26.795Z,99998.78
2022-11-06T16:21:56.191Z,100005.34
2022-11-06T16:24:23.732Z,99994.09
2022-11-06T16:26:52.579Z,100016.81
2022-11-06T16:29:21.325Z,100013.09
2022-11-06T16:31:49.337Z,99993.38
2022-11-06T16:34:21.667Z,99992.09
2022-11-06T16:36:50.069Z,99993.88
2022-11-06T16:39:48.809Z,99987.22
2022-11-06T16:42:31.396Z,99985.84
2022-11-06T16:45:02.433Z,99981.38
2022-11-06T16:47:30.049Z,99974.13
2022-11-06T16:49:57.575Z,99967.81
2022-11-06T16:52:28.733Z,99969.28
2022-11-06T16:54:57.267Z,99963.28
2022-11-06T16:57:25.442Z,99952.00
2022-11-06T17:00:05.574Z,99942.50
2022-11-06T17:02:33.769Z,99933.75
2022-11-06T17:05:11.679Z,99933.97
2022-11-06T17:07:39.826Z,99945.66
2022-11-06T17:10:26.538Z,99935.22
2022-11-06T17:12:54.014Z,99925.09
2022-11-06T17:15:22.844Z,99927.09
2022-11-06T17:17:50.515Z,99910.75
2022-11-06T17:20:18.579Z,99914.53
2022-11-06T17:22:46.116Z,99879.03
2022-11-06T17:25:13.559Z,99896.94
2022-11-06T17:27:41.630Z,99893.56
2022-11-06T17:30:12.750Z,99889.97
2022-11-06T17:32:41.750Z,99869.63
2022-11-06T17:35:09.750Z,99872.78
2022-11-06T17:37:37.230Z,99874.38
2022-11-06T17:40:05.134Z,99879.63
2022-11-06T17:42:32.798Z,99877.19
2022-11-06T17:45:00.242Z,99868.56
2022-11-06T17:47:27.716Z,99864.25
2022-11-06T17:49:56.826Z,99855.28
2022-11-06T17:52:24.548Z,99842.75
2022-11-06T17:54:52.011Z,99856.13
2022-11-06T17:57:23.852Z,99841.47
2022-11-06T17:59:51.683Z,99831.97
2022-11-06T18:02:40.824Z,99833.88
2022-11-06T18:05:08.499Z,99822.91
2022-11-06T18:07:35.952Z,99822.84
2022-11-06T18:10:03.527Z,99805.09
2022-11-06T18:12:31.043Z,99811.94
2022-11-06T18:14:58.515Z,99809.63
2022-11-06T18:17:25.959Z,99800.78
2022-11-06T18:19:53.447Z,99803.06
2022-11-06T18:22:22.260Z,99798.06
2022-11-06T18:24:49.711Z,99811.13
2022-11-06T18:27:17.160Z,99804.16
2022-11-06T18:29:44.601Z,99820.41
2022-11-06T18:32:12.202Z,99826.31
2022-11-06T18:34:40.315Z,99813.25
2022-11-06T18:37:07.763Z,99811.53
2022-11-06T18:39:36.599Z,99803.09
2022-11-06T18:42:04.144Z,99824.19
2022-11-06T18:44:32.378Z,99820.50
2022-11-06T18:46:59.832Z,99828.63
2022-11-06T18:49:27.277Z,99817.84
2022-11-06T18:51:54.780Z,99827.34
2022-11-06T18:54:22.444Z,99829.13
2022-11-06T18:56:51.251Z,99843.59
2022-11-06T18:59:20.035Z,99834.53
2022-11-06T19:01:47.605Z,99832.72
2022-11-06T19:04:15.242Z,99819.84
2022-11-06T19:06:42.748Z,99817.00
2022-11-06T19:09:10.795Z,99823.13
2022-11-06T19:11:38.315Z,99812.78
2022-11-06T19:14:07.152Z,99800.25
2022-11-06T19:16:34.623Z,99799.94
2022-11-06T19:21:31.378Z,99815.66
2022-11-06T19:24:03.337Z,99795.94
2022-11-06T19:26:32.703Z,99802.69
2022-11-06T19:29:00.740Z,99802.50
2022-11-06T19:31:30.325Z,99803.41
2022-11-06T19:33:58.111Z,99793.63
2022-11-06T19:36:26.036Z,99798.66
2022-11-06T19:38:53.554Z,99812.59
2022-11-06T19:41:21.158Z,99808.81
2022-11-06T19:43:48.637Z,99805.00
2022-11-06T19:46:23.450Z,99819.75
2022-11-06T19:48:53.762Z,99815.22
2022-11-06T19:51:21.223Z,99828.81
2022-11-06T19:53:52.112Z,99816.63
2022-11-06T19:56:19.570Z,99796.78
2022-11-06T19:58:47.656Z,99814.28
2022-11-06T20:01:15.662Z,99823.03
2022-11-06T20:03:43.181Z,99819.56
2022-11-06T20:06:12.182Z,99808.25
2022-11-06T20:08:39.692Z,99821.88
2022-11-06T20:11:07.804Z,99824.13
2022-11-06T20:13:36.483Z,99818.25
2022-11-06T20:16:04.092Z,99789.63
2022-11-06T20:18:31.586Z,99819.63
2022-11-06T20:21:00.392Z,99828.16
2022-11-06T20:23:29.265Z,99823.72
2022-11-06T20:25:56.743Z,99810.91
2022-11-06T20:28:24.423Z,99806.91
2022-11-06T20:30:51.914Z,99818.47
2022-11-06T20:33:19.490Z,99814.06
2022-11-06T20:35:47.830Z,99819.00
2022-11-06T20:38:15.646Z,99817.81
2022-11-06T20:40:44.478Z,99807.88
2022-11-06T20:43:12.213Z,99807.81
2022-11-06T20:45:39.991Z,99812.38
2022-11-06T20:48:08.999Z,99789.19
2022-11-06T20:50:36.517Z,99798.34
2022-11-06T20:53:04.016Z,99812.75
2022-11-06T20:55:31.526Z,99820.44
2022-11-06T20:58:00.381Z,99819.19
2022-11-06T21:00:28.730Z,99820.31
2022-11-06T21:03:01.378Z,99817.22
2022-11-06T21:05:29.388Z,99825.34
2022-11-06T21:07:56.835Z,99831.16
2022-11-06T21:10:24.318Z,99838.91
2022-11-06T21:12:51.788Z,99840.81
2022-11-06T21:15:20.652Z,99844.22
2022-11-06T21:17:48.091Z,99848.91
2022-11-06T21:20:20.386Z,99835.69
2022-11-06T21:22:50.152Z,99849.53
2022-11-06T21:25:17.643Z,99845.66
2022-11-06T21:27:45.112Z,99856.53
2022-11-06T21:30:12.939Z,99838.75
2022-11-06T21:32:41.747Z,99848.44
2022-11-06T21:35:09.630Z,99854.41
2022-11-06T21:37:37.092Z,99854.75
2022-11-06T21:40:05.108Z,99869.75
2022-11-06T21:42:32.632Z,99867.28
2022-11-06T21:45:00.112Z,99857.03
2022-11-06T21:47:27.631Z,99851.97
2022-11-06T21:49:56.498Z,99855.47
2022-11-06T21:52:41.695Z,99863.16
2022-11-06T21:55:28.105Z,99846.28
2022-11-06T21:57:55.771Z,99853.63
2022-11-06T22:00:23.244Z,99865.59
2022-11-06T22:02:51.737Z,99858.94
2022-11-06T22:05:20.619Z,99864.34
2022-11-06T22:07:48.080Z,99883.41
2022-11-06T22:10:15.559Z,99870.16
2022-11-06T22:12:42.990Z,99855.94
2022-11-06T22:15:10.735Z,99870.28
2022-11-06T22:17:38.200Z,99865.56
2022-11-06T22:20:06.123Z,99863.06
2022-11-06T22:22:34.996Z,99878.69
2022-11-06T22:25:02.747Z,99874.94
2022-11-06T22:27:30.400Z,99869.97
2022-11-06T22:29:58.072Z,99865.47
2022-11-06T22:32:25.628Z,99868.88
2022-11-06T22:34:53.111Z,99876.94
2022-11-06T22:37:20.612Z,99863.59
2022-11-06T22:39:50.018Z,99866.63
2022-11-06T22:42:17.483Z,99876.53
2022-11-06T22:44:45.150Z,99879.03
2022-11-06T22:47:12.834Z,99889.06
2022-11-06T22:49:40.464Z,99893.19
2022-11-06T22:52:07.958Z,99887.09
2022-11-06T22:54:35.445Z,99893.31
2022-11-06T22:57:04.302Z,99883.13
2022-11-06T22:59:31.768Z,99882.31
2022-11-06T23:02:00.389Z,99884.19
2022-11-06T23:04:27.904Z,99897.41
2022-11-06T23:06:55.339Z,99889.78
2022-11-06T23:09:22.831Z,99899.41
2022-11-06T23:11:50.300Z,99891.81
2022-11-06T23:14:19.136Z,99899.94
2022-11-06T23:16:58.903Z,99887.81
2022-11-06T23:19:26.680Z,99892.63
2022-11-06T23:22:14.269Z,99905.44
2022-11-06T23:24:41.734Z,99891.94
2022-11-06T23:27:09.871Z,99897.25
2022-11-06T23:29:38.764Z,99897.78
2022-11-06T23:32:06.515Z,99903.31
2022-11-06T23:34:34.071Z,99910.63
2022-11-06T23:37:01.552Z,99914.41
2022-11-06T23:39:28.997Z,99909.16
2022-11-06T23:41:56.484Z,99900.78
2022-11-06T23:44:41.445Z,99895.91
2022-11-06T23:47:10.285Z,99900.41
2022-11-06T23:49:37.737Z,99903.31
2022-11-06T23:52:05.432Z,99902.38
2022-11-06T23:54:32.913Z,99919.19
2022-11-06T23:57:00.359Z,99903.44
2022-11-06T23:59:27.827Z,99914.69
